Time;durP1;ratioP1;P1;durP2;ratioP2;P2;SDS_P1;SDS_P2;PMS_P1;PMS_P2;Temp;Humidity;BMP_temperature;BMP_pressure;BME280_temperature;BME280_humidity;BME280_pressure;Samples;Min_cycle;Max_cycle;Signal;HPM_P1;HPM_P2
2024/02/03 00:01:48;;;;;;;21.85;15.82;;;;;;;8.17;100.00;102329.28;5039357;28;20036;-70
2024/02/03 00:04:13;;;;;;;21.67;15.18;;;;;;;8.17;100.00;102326.53;5039125;28;20496;-70
2024/02/03 00:06:39;;;;;;;21.35;14.45;;;;;;;8.17;100.00;102329.28;5039145;28;20040;-70
2024/02/03 00:09:05;;;;;;;19.35;14.52;;;;;;;8.17;100.00;102332.06;5022662;28;20386;-70
2024/02/03 00:11:31;;;;;;;19.80;14.13;;;;;;;8.18;100.00;102330.13;5042677;28;20025;-70
2024/02/03 00:13:56;;;;;;;19.83;14.70;;;;;;;8.17;100.00;102329.28;5022651;28;20543;-70
2024/02/03 00:16:22;;;;;;;18.27;13.18;;;;;;;8.17;100.00;102329.28;5055435;28;20040;-70
2024/02/03 00:18:47;;;;;;;17.98;13.65;;;;;;;8.17;100.00;102328.44;5022141;28;20029;-71
2024/02/03 00:21:13;;;;;;;19.92;13.73;;;;;;;8.17;100.00;102325.69;5022280;28;20028;-70
2024/02/03 00:23:38;;;;;;;19.27;14.48;;;;;;;8.16;100.00;102326.75;5047945;28;20149;-70
2024/02/03 00:26:04;;;;;;;17.38;12.90;;;;;;;8.16;100.00;102330.38;5016474;28;20704;-70
2024/02/03 00:28:29;;;;;;;19.50;14.32;;;;;;;8.15;100.00;102328.66;5052948;28;20032;-70
2024/02/03 00:30:55;;;;;;;20.35;13.77;;;;;;;8.16;100.00;102322.06;5022260;28;20032;-70
2024/02/03 00:33:20;;;;;;;18.88;12.98;;;;;;;8.15;100.00;102317.59;5046857;28;20044;-70
2024/02/03 00:35:45;;;;;;;19.55;14.20;;;;;;;8.16;100.00;102316.53;5055114;28;20032;-70
2024/02/03 00:38:11;;;;;;;17.23;13.07;;;;;;;8.15;100.00;102308.47;5038670;28;20029;-70
2024/02/03 00:40:37;;;;;;;18.15;13.38;;;;;;;8.16;100.00;102310.13;5038721;28;20063;-70
2024/02/03 00:43:03;;;;;;;18.70;12.55;;;;;;;8.16;100.00;102307.38;5038949;28;20087;-70
2024/02/03 00:45:28;;;;;;;17.67;12.30;;;;;;;8.14;100.00;102307.63;5030683;28;20029;-70
2024/02/03 00:47:54;;;;;;;17.23;11.95;;;;;;;8.15;100.00;102312.06;5029493;28;20044;-70
2024/02/03 00:50:20;;;;;;;17.70;11.77;;;;;;;8.15;100.00;102309.28;5027244;28;20546;-70
2024/02/03 00:52:45;;;;;;;15.10;10.68;;;;;;;8.15;100.00;102309.28;5038256;28;20781;-70
2024/02/03 00:55:11;;;;;;;13.43;10.48;;;;;;;8.16;100.00;102304.59;5006205;28;20071;-70
2024/02/03 00:57:36;;;;;;;14.05;9.90;;;;;;;8.16;100.00;102312.91;5026918;28;20477;-70
2024/02/03 01:00:03;;;;;;;14.65;9.95;;;;;;;8.15;100.00;102306.53;5043705;28;20533;-70
2024/02/03 01:02:29;;;;;;;13.93;10.02;;;;;;;8.15;100.00;102306.53;5026938;28;20040;-70
2024/02/03 01:04:54;;;;;;;13.30;10.43;;;;;;;8.14;100.00;102299.31;5024667;28;20349;-70
2024/02/03 01:07:20;;;;;;;13.25;9.98;;;;;;;8.16;100.00;102301.81;5035006;28;20032;-70
2024/02/03 01:09:45;;;;;;;14.93;9.52;;;;;;;8.16;100.00;102299.94;5049923;28;20033;-70
2024/02/03 01:12:11;;;;;;;12.68;9.18;;;;;;;8.17;100.00;102307.16;5043223;28;20107;-70
2024/02/03 01:14:36;;;;;;;13.60;9.18;;;;;;;8.16;100.00;102307.38;5023889;28;20038;-70
2024/02/03 01:17:04;;;;;;;13.90;9.30;;;;;;;8.16;100.00;102305.47;5034925;28;20038;-70
2024/02/03 01:19:29;;;;;;;11.43;8.55;;;;;;;8.15;100.00;102303.75;5032166;28;20532;-70
2024/02/03 01:21:54;;;;;;;12.68;9.00;;;;;;;8.17;100.00;102295.22;5021827;28;20036;-70
2024/02/03 01:24:20;;;;;;;11.55;8.30;;;;;;;8.17;100.00;102289.69;5026520;28;20033;-70
2024/02/03 01:26:46;;;;;;;14.57;9.23;;;;;;;8.15;100.00;102301.00;5033601;28;20466;-70
2024/02/03 01:29:11;;;;;;;12.27;8.13;;;;;;;8.15;100.00;102303.75;5018179;28;20474;-70
2024/02/03 01:31:37;;;;;;;12.07;8.70;;;;;;;8.16;100.00;102299.06;5050437;28;20044;-70
2024/02/03 01:34:03;;;;;;;12.32;8.32;;;;;;;8.15;100.00;102298.22;5027890;28;20025;-70
2024/02/03 01:36:28;;;;;;;12.30;8.23;;;;;;;8.15;100.00;102292.69;5042021;28;20385;-70
2024/02/03 01:38:53;;;;;;;13.65;8.63;;;;;;;8.14;100.00;102293.78;5046407;28;20091;-70
2024/02/03 01:41:19;;;;;;;10.13;7.72;;;;;;;8.14;100.00;102291.00;5013597;28;20025;-70
2024/02/03 01:43:45;;;;;;;9.70;7.82;;;;;;;8.14;100.00;102292.94;5058506;28;20546;-70
2024/02/03 01:46:11;;;;;;;11.88;8.25;;;;;;;8.15;100.00;102289.09;5032388;28;20038;-70
2024/02/03 01:48:37;;;;;;;9.13;7.25;;;;;;;8.14;100.00;102290.19;5024967;28;20025;-70
2024/02/03 01:51:02;;;;;;;10.00;7.38;;;;;;;8.13;100.00;102294.00;5025257;28;20032;-70
2024/02/03 01:53:28;;;;;;;8.93;6.90;;;;;;;8.12;100.00;102287.63;5025573;28;20064;-70
2024/02/03 01:55:53;;;;;;;10.10;7.53;;;;;;;8.12;100.00;102293.16;5041644;28;20032;-70
2024/02/03 01:58:19;;;;;;;11.07;7.97;;;;;;;8.13;100.00;102288.47;5041714;28;20021;-70
2024/02/03 02:00:45;;;;;;;13.48;8.98;;;;;;;8.13;100.00;102288.47;5039920;28;20108;-70
2024/02/03 02:03:12;;;;;;;12.13;8.50;;;;;;;8.12;100.00;102289.56;5041582;28;20021;-70
2024/02/03 02:05:37;;;;;;;11.10;8.23;;;;;;;8.11;100.00;102285.94;5041468;28;20021;-70
2024/02/03 02:08:03;;;;;;;10.20;7.20;;;;;;;8.12;100.00;102286.78;5024827;28;20036;-70
2024/02/03 02:10:28;;;;;;;10.02;6.90;;;;;;;8.11;100.00;102280.41;5024768;28;20497;-70
2024/02/03 02:12:54;;;;;;;9.77;7.30;;;;;;;8.11;100.00;102283.19;5058031;28;20595;-70
2024/02/03 02:15:20;;;;;;;10.82;7.28;;;;;;;8.11;100.00;102280.41;5024697;28;20080;-70
2024/02/03 02:17:45;;;;;;;11.00;8.20;;;;;;;8.10;100.00;102281.47;5041286;28;20400;-70
2024/02/03 02:20:11;;;;;;;11.50;7.53;;;;;;;8.11;100.00;102277.66;5024402;28;20029;-70
2024/02/03 02:22:37;;;;;;;9.50;6.75;;;;;;;8.11;100.00;102279.53;5041364;28;20110;-70
2024/02/03 02:25:03;;;;;;;10.27;7.65;;;;;;;8.11;100.00;102277.66;5024767;28;20021;-70
2024/02/03 02:27:29;;;;;;;11.32;7.43;;;;;;;8.11;100.00;102274.88;5041349;28;20061;-70
2024/02/03 02:29:55;;;;;;;12.52;7.72;;;;;;;8.10;100.00;102269.56;5057552;28;20451;-70
2024/02/03 02:32:20;;;;;;;10.90;7.65;;;;;;;8.11;100.00;102268.47;5022229;28;20028;-70
2024/02/03 02:34:46;;;;;;;11.15;7.95;;;;;;;8.09;100.00;102265.97;5057301;28;20394;-70
2024/02/03 02:37:11;;;;;;;12.15;8.65;;;;;;;8.10;100.00;102262.09;5040693;28;20029;-70
2024/02/03 02:39:37;;;;;;;8.88;7.05;;;;;;;8.10;100.00;102266.78;5040913;28;20139;-70
2024/02/03 02:42:02;;;;;;;10.73;7.78;;;;;;;8.10;100.00;102262.09;5040681;28;20035;-70
2024/02/03 02:44:28;;;;;;;12.73;8.38;;;;;;;8.09;100.00;102257.66;5047056;28;20055;-70
2024/02/03 02:46:53;;;;;;;9.80;7.45;;;;;;;8.09;100.00;102259.59;5032943;28;20094;-70
2024/02/03 02:49:18;;;;;;;11.18;7.93;;;;;;;8.09;100.00;102254.88;5057071;28;20033;-70
2024/02/03 02:51:44;;;;;;;9.35;7.10;;;;;;;8.08;100.00;102261.50;5023920;28;20452;-70
2024/02/03 02:54:09;;;;;;;10.05;7.43;;;;;;;8.08;100.00;102264.28;5040042;28;20033;-70
2024/02/03 02:56:35;;;;;;;10.27;7.80;;;;;;;8.09;100.00;102260.41;5053764;28;20489;-70
2024/02/03 02:59:00;;;;;;;10.77;7.18;;;;;;;8.08;100.00;102258.75;5055581;28;20025;-70
2024/02/03 03:01:26;;;;;;;11.27;7.47;;;;;;;8.09;100.00;102249.34;5039467;28;20393;-70
2024/02/03 03:03:54;;;;;;;9.57;7.13;;;;;;;8.10;100.00;102256.56;5040164;28;20029;-70
2024/02/03 03:06:20;;;;;;;9.20;6.95;;;;;;;8.07;100.00;102257.88;5040383;28;20386;-70
2024/02/03 03:08:46;;;;;;;8.52;6.60;;;;;;;8.06;100.00;102256.19;5054151;28;20025;-70
2024/02/03 03:11:14;;;;;;;8.65;6.68;;;;;;;8.07;100.00;102245.97;5035284;28;20107;-70
2024/02/03 03:13:39;;;;;;;9.50;6.55;;;;;;;8.07;100.00;102240.44;5040748;28;20623;-70
2024/02/03 03:16:06;;;;;;;10.02;7.07;;;;;;;8.08;100.00;102239.38;5040056;28;20033;-70
2024/02/03 03:18:32;;;;;;;8.73;6.32;;;;;;;8.07;100.00;102238.50;5056553;28;20080;-70
2024/02/03 03:21:01;;;;;;;11.27;6.30;;;;;;;8.09;100.00;102242.97;5023709;28;20473;-70
2024/02/03 03:23:26;;;;;;;9.30;6.15;;;;;;;8.09;100.00;102242.97;5040081;28;20040;-70
2024/02/03 03:25:54;;;;;;;9.32;6.50;;;;;;;8.07;100.00;102244.03;5023523;28;20036;-70
2024/02/03 03:28:19;;;;;;;9.43;6.55;;;;;;;8.06;100.00;102245.13;5028732;28;20036;-70
2024/02/03 03:30:45;;;;;;;9.65;6.10;;;;;;;8.07;100.00;102244.03;5055501;28;20037;-70
2024/02/03 03:33:10;;;;;;;9.27;5.65;;;;;;;8.07;100.00;102241.28;5047165;28;20060;-70
2024/02/03 03:35:36;;;;;;;8.00;5.72;;;;;;;8.07;100.00;102234.91;5039631;28;20029;-70
2024/02/03 03:38:02;;;;;;;6.80;5.38;;;;;;;8.07;100.00;102245.97;5023139;28;20064;-70
2024/02/03 03:40:28;;;;;;;8.13;5.90;;;;;;;8.07;100.00;102240.44;5023538;28;20037;-70
2024/02/03 03:42:54;;;;;;;9.80;6.32;;;;;;;8.07;100.00;102240.44;5045173;28;20028;-70
2024/02/03 03:45:19;;;;;;;7.82;5.53;;;;;;;8.06;100.00;102242.38;5039669;28;20103;-70
2024/02/03 03:47:45;;;;;;;8.43;5.45;;;;;;;8.08;100.00;102239.38;5058233;28;20076;-69
2024/02/03 03:50:10;;;;;;;10.23;6.03;;;;;;;8.08;100.00;102242.16;5024655;28;20041;-70
2024/02/03 03:52:36;;;;;;;8.20;5.50;;;;;;;8.07;100.00;102232.13;5037175;28;20079;-70
2024/02/03 03:55:01;;;;;;;7.53;5.35;;;;;;;8.08;100.00;102231.06;5024664;28;20538;-70
2024/02/03 03:57:27;;;;;;;7.50;5.40;;;;;;;8.06;100.00;102236.84;5038952;28;20474;-70
2024/02/03 03:59:52;;;;;;;10.43;4.97;;;;;;;8.06;100.00;102233.22;5024320;28;20025;-70
2024/02/03 04:02:18;;;;;;;8.88;5.40;;;;;;;8.06;100.00;102239.59;5038874;28;20029;-70
2024/02/03 04:04:44;;;;;;;7.97;5.40;;;;;;;8.06;100.00;102234.06;5044028;28;20021;-70
2024/02/03 04:07:10;;;;;;;8.48;5.15;;;;;;;8.06;100.00;102236.84;5032847;28;20070;-70
2024/02/03 04:09:35;;;;;;;8.77;4.97;;;;;;;8.07;100.00;102232.13;5044440;28;20033;-70
2024/02/03 04:12:00;;;;;;;8.30;5.57;;;;;;;8.05;100.00;102231.50;5055657;28;20571;-70
2024/02/03 04:14:26;;;;;;;9.00;5.60;;;;;;;8.05;100.00;102231.50;5044399;28;20028;-70
2024/02/03 04:16:52;;;;;;;9.48;5.22;;;;;;;8.05;100.00;102231.50;5049359;28;20174;-70
2024/02/03 04:19:18;;;;;;;8.05;5.25;;;;;;;8.05;100.00;102232.38;5044088;28;20393;-70
2024/02/03 04:21:43;;;;;;;7.95;5.13;;;;;;;8.05;100.00;102232.38;5055398;28;20029;-70
2024/02/03 04:24:09;;;;;;;5.85;4.80;;;;;;;8.05;100.00;102226.84;5026007;28;20095;-70
2024/02/03 04:26:35;;;;;;;9.18;5.10;;;;;;;8.06;100.00;102222.16;5049221;28;20052;-70
2024/02/03 04:29:01;;;;;;;7.55;4.68;;;;;;;8.05;100.00;102229.63;5024065;28;20034;-70
2024/02/03 04:31:26;;;;;;;6.75;4.75;;;;;;;8.05;100.00;102232.38;5051942;28;20363;-70
2024/02/03 04:33:52;;;;;;;6.63;4.50;;;;;;;8.05;100.00;102225.97;5055410;28;20083;-70
2024/02/03 04:36:18;;;;;;;6.28;4.38;;;;;;;8.08;100.00;102225.53;5038736;28;20029;-70
2024/02/03 04:38:43;;;;;;;5.03;3.72;;;;;;;8.08;100.00;102231.06;5023960;28;20116;-70
2024/02/03 04:41:08;;;;;;;7.78;4.43;;;;;;;8.06;100.00;102236.00;5051566;28;20037;-70
2024/02/03 04:43:34;;;;;;;7.35;4.30;;;;;;;8.04;100.00;102235.38;5013179;28;20083;-70
2024/02/03 04:46:00;;;;;;;6.85;4.05;;;;;;;8.05;100.00;102231.50;5026133;28;20029;-70
2024/02/03 04:48:26;;;;;;;8.38;4.20;;;;;;;8.05;100.00;102240.69;5070123;28;20047;-70
2024/02/03 04:50:51;;;;;;;7.18;3.92;;;;;;;8.05;100.00;102237.91;5070484;28;20032;-70
2024/02/03 04:53:17;;;;;;;5.60;3.47;;;;;;;8.06;100.00;102239.59;5083813;28;20036;-70
2024/02/03 04:55:42;;;;;;;8.48;4.07;;;;;;;8.05;100.00;102239.81;5070157;28;20552;-70
2024/02/03 04:58:08;;;;;;;5.97;3.95;;;;;;;8.05;100.00;102231.50;5070032;28;20430;-70
2024/02/03 05:00:33;;;;;;;7.75;3.80;;;;;;;8.06;100.00;102238.75;5070110;28;20097;-70
2024/02/03 05:02:59;;;;;;;10.45;3.97;;;;;;;8.06;100.00;102238.75;5066674;28;20389;-70
2024/02/03 05:05:24;;;;;;;7.28;4.32;;;;;;;8.05;100.00;102237.91;5058238;28;20098;-70
2024/02/03 05:07:53;;;;;;;6.00;3.63;;;;;;;8.03;100.00;102242.84;5066543;28;20397;-70
2024/02/03 05:10:19;;;;;;;7.75;3.42;;;;;;;8.06;100.00;102241.53;5061363;28;20056;-70
2024/02/03 05:12:44;;;;;;;7.18;4.30;;;;;;;8.05;100.00;102237.06;5085079;28;20040;-70
2024/02/03 05:15:09;;;;;;;5.65;3.35;;;;;;;8.06;100.00;102234.06;5097112;28;20476;-70
2024/02/03 05:17:35;;;;;;;4.55;3.53;;;;;;;8.06;100.00;102224.94;5052935;28;20028;-70
2024/02/03 05:20:02;;;;;;;5.20;3.50;;;;;;;8.06;100.00;102234.06;5048976;28;20077;-70
2024/02/03 05:22:27;;;;;;;6.13;3.65;;;;;;;8.05;100.00;102226.84;5090009;28;20068;-70
2024/02/03 05:24:52;;;;;;;5.75;3.63;;;;;;;8.05;100.00;102225.97;5082164;28;20028;-70
2024/02/03 05:27:18;;;;;;;5.68;3.22;;;;;;;8.06;100.00;102224.94;5072854;28;20032;-70
2024/02/03 05:29:44;;;;;;;6.28;3.10;;;;;;;8.05;100.00;102221.31;5065266;28;20036;-70
2024/02/03 05:32:09;;;;;;;3.95;2.83;;;;;;;8.05;100.00;102214.91;5091806;28;20080;-70
2024/02/03 05:34:35;;;;;;;4.10;2.92;;;;;;;8.04;100.00;102216.84;5090109;28;20036;-70
2024/02/03 05:37:00;;;;;;;4.95;2.83;;;;;;;8.05;100.00;102214.91;5089250;28;20028;-70
2024/02/03 05:39:25;;;;;;;6.70;2.90;;;;;;;8.06;100.00;102211.09;5073069;28;20097;-70
2024/02/03 05:41:51;;;;;;;5.55;2.88;;;;;;;8.05;100.00;102215.78;5052471;28;20024;-70
2024/02/03 05:44:18;;;;;;;5.68;2.85;;;;;;;8.05;100.00;102210.25;5065307;28;20024;-70
2024/02/03 05:46:43;;;;;;;6.13;3.40;;;;;;;8.05;100.00;102218.56;5062342;28;20064;-70
2024/02/03 05:49:08;;;;;;;6.43;3.35;;;;;;;8.03;100.00;102212.41;5079828;28;20032;-70
2024/02/03 05:51:34;;;;;;;4.90;3.03;;;;;;;8.04;100.00;102214.06;5081670;28;20036;-70
2024/02/03 05:53:59;;;;;;;3.28;2.63;;;;;;;8.04;100.00;102211.31;5060464;28;20099;-70
2024/02/03 05:56:25;;;;;;;7.50;2.97;;;;;;;8.05;100.00;102213.00;5065129;28;20036;-70
2024/02/03 05:58:50;;;;;;;3.72;2.47;;;;;;;8.05;100.00;102212.16;5055646;28;20032;-70
2024/02/03 06:01:19;;;;;;;6.82;2.55;;;;;;;8.04;100.00;102211.31;5064665;28;20551;-70
2024/02/03 06:03:46;;;;;;;5.18;2.65;;;;;;;8.03;100.00;102204.09;5049077;28;20097;-70
2024/02/03 06:06:11;;;;;;;3.40;2.60;;;;;;;8.04;100.00;102210.47;5078426;28;20032;-70
2024/02/03 06:08:37;;;;;;;4.85;2.85;;;;;;;8.04;100.00;102210.47;5056076;28;20507;-70
2024/02/03 06:11:03;;;;;;;6.00;3.30;;;;;;;8.03;100.00;102208.78;5092747;28;20028;-70
2024/02/03 06:13:28;;;;;;;3.92;2.78;;;;;;;8.03;100.00;102206.03;5059701;28;20079;-70
2024/02/03 06:15:53;;;;;;;5.28;3.20;;;;;;;8.02;100.00;102212.63;5052112;28;20102;-70
2024/02/03 06:18:19;;;;;;;6.70;3.08;;;;;;;8.03;100.00;102208.78;5073731;28;20107;-70
2024/02/03 06:20:47;;;;;;;3.30;2.47;;;;;;;8.02;100.00;102205.19;5087897;28;20051;-70
2024/02/03 06:23:12;;;;;;;6.07;2.63;;;;;;;8.01;100.00;102211.78;5081449;28;20036;-70
2024/02/03 06:25:38;;;;;;;5.35;2.60;;;;;;;8.02;100.00;102207.09;5057924;28;20028;-71
2024/02/03 06:28:03;;;;;;;4.68;2.50;;;;;;;8.02;100.00;102205.19;5048030;28;20032;-70
2024/02/03 06:30:29;;;;;;;4.88;2.90;;;;;;;8.02;100.00;102210.72;5038135;28;20028;-70
2024/02/03 06:32:54;;;;;;;3.85;2.53;;;;;;;8.01;100.00;102203.47;5038547;28;20084;-70
2024/02/03 06:35:20;;;;;;;6.88;3.22;;;;;;;8.01;100.00;102209.00;5068963;28;20446;-70
2024/02/03 06:37:45;;;;;;;3.55;2.50;;;;;;;7.98;100.00;102203.13;5085883;28;20028;-70
2024/02/03 06:40:11;;;;;;;4.13;2.38;;;;;;;8.00;100.00;102212.88;5042011;28;20451;-70
2024/02/03 06:42:37;;;;;;;3.20;2.40;;;;;;;8.01;100.00;102213.72;5104672;28;20027;-70
2024/02/03 06:45:02;;;;;;;6.35;2.80;;;;;;;7.98;100.00;102215.03;5060338;28;20024;-70
2024/02/03 06:47:28;;;;;;;4.47;2.70;;;;;;;8.00;100.00;102206.50;5057990;28;20119;-70
2024/02/03 06:49:53;;;;;;;5.68;2.38;;;;;;;7.96;100.00;102221.88;5087707;28;20028;-70
2024/02/03 06:52:18;;;;;;;4.78;2.47;;;;;;;7.98;100.00;102217.78;5098429;28;20357;-70
2024/02/03 06:54:44;;;;;;;5.68;2.67;;;;;;;7.98;100.00;102216.97;5066058;28;20081;-70
2024/02/03 06:57:09;;;;;;;3.58;2.30;;;;;;;7.96;100.00;102221.88;5083447;28;20028;-70
2024/02/03 06:59:35;;;;;;;4.60;2.63;;;;;;;7.99;100.00;102218.63;5049338;28;20051;-70
2024/02/03 07:02:00;;;;;;;4.50;2.17;;;;;;;8.00;100.00;102221.19;5098585;28;20028;-70
2024/02/03 07:04:26;;;;;;;5.57;2.25;;;;;;;7.98;100.00;102223.31;5065749;28;20106;-70
2024/02/03 07:06:51;;;;;;;3.83;2.53;;;;;;;7.98;100.00;102214.19;5049857;28;20481;-70
2024/02/03 07:09:17;;;;;;;7.03;4.15;;;;;;;7.97;100.00;102216.13;5080297;28;20089;-70
2024/02/03 07:11:42;;;;;;;3.95;2.85;;;;;;;7.98;100.00;102225.25;5088707;28;20480;-70
2024/02/03 07:14:07;;;;;;;5.65;2.85;;;;;;;7.97;100.00;102221.66;5061804;28;20031;-70
2024/02/03 07:16:33;;;;;;;5.57;2.72;;;;;;;7.97;100.00;102218.88;5058623;28;20373;-70
2024/02/03 07:18:59;;;;;;;5.60;2.83;;;;;;;8.00;100.00;102225.88;5059112;28;20039;-70
2024/02/03 07:21:24;;;;;;;4.05;2.58;;;;;;;7.98;100.00;102215.03;5079277;28;20456;-70
2024/02/03 07:23:50;;;;;;;5.38;2.47;;;;;;;8.00;100.00;102225.88;5081561;28;20365;-70
2024/02/03 07:26:16;;;;;;;4.38;2.17;;;;;;;7.97;100.00;102223.56;5057690;28;20029;-70
2024/02/03 07:28:41;;;;;;;6.70;2.35;;;;;;;7.97;100.00;102218.03;5071008;28;20035;-70
2024/02/03 07:31:07;;;;;;;5.18;2.03;;;;;;;7.97;100.00;102220.81;5065034;28;20028;-70
2024/02/03 07:33:32;;;;;;;3.70;2.05;;;;;;;7.96;100.00;102225.47;5033473;28;20057;-70
2024/02/03 07:35:58;;;;;;;3.97;2.17;;;;;;;7.97;100.00;102218.88;5046394;28;20032;-70
2024/02/03 07:38:25;;;;;;;3.75;2.17;;;;;;;7.96;100.00;102221.88;5085090;28;20035;-70
2024/02/03 07:40:51;;;;;;;5.40;2.10;;;;;;;7.97;100.00;102223.56;5065544;28;20032;-70
2024/02/03 07:43:16;;;;;;;4.05;1.92;;;;;;;7.97;100.00;102220.81;5071255;28;20430;-70
2024/02/03 07:45:42;;;;;;;3.33;2.00;;;;;;;7.96;100.00;102224.63;5048201;28;20031;-70
2024/02/03 07:48:07;;;;;;;2.78;1.60;;;;;;;7.95;100.00;102232.09;5059104;28;20064;-70
2024/02/03 07:50:33;;;;;;;3.97;1.90;;;;;;;7.98;100.00;102230.78;5075773;28;20050;-70
2024/02/03 07:52:58;;;;;;;3.80;1.88;;;;;;;7.96;100.00;102233.78;5072910;28;20032;-70
2024/02/03 07:55:24;;;;;;;2.60;1.75;;;;;;;7.96;100.00;102235.69;5049068;28;20032;-70
2024/02/03 07:57:49;;;;;;;3.95;1.80;;;;;;;7.96;100.00;102238.47;5059439;28;20094;-70
2024/02/03 08:00:15;;;;;;;3.83;1.75;;;;;;;7.99;100.00;102240.75;5075500;28;20039;-70
2024/02/03 08:02:40;;;;;;;3.17;1.73;;;;;;;7.99;100.00;102244.38;5062500;28;20116;-70
2024/02/03 08:05:06;;;;;;;2.35;1.58;;;;;;;7.98;100.00;102233.56;5053097;28;20032;-70
2024/02/03 08:07:31;;;;;;;3.40;1.50;;;;;;;8.00;100.00;102236.94;5063505;28;20476;-70
2024/02/03 08:09:57;;;;;;;5.18;2.33;;;;;;;7.99;100.00;102238.00;5082855;28;20028;-70
2024/02/03 08:12:23;;;;;;;2.90;1.60;;;;;;;7.99;100.00;102240.75;5087133;28;20032;-70
2024/02/03 08:14:48;;;;;;;3.15;1.80;;;;;;;8.00;100.00;102239.69;5070377;28;20032;-70
2024/02/03 08:17:14;;;;;;;2.17;1.67;;;;;;;8.00;100.00;102236.94;5052231;28;20024;-70
2024/02/03 08:19:39;;;;;;;2.65;1.60;;;;;;;8.00;100.00;102232.25;5072845;28;20028;-70
2024/02/03 08:22:05;;;;;;;1.92;1.58;;;;;;;8.00;100.00;102228.63;5028113;28;20112;-70
2024/02/03 08:24:30;;;;;;;4.15;1.60;;;;;;;8.01;100.00;102230.31;5067322;28;20024;-70
2024/02/03 08:26:56;;;;;;;1.80;1.23;;;;;;;8.01;100.00;102230.31;5066632;28;20024;-70
2024/02/03 08:29:21;;;;;;;4.00;1.55;;;;;;;8.02;100.00;102232.00;5036630;28;20092;-70
2024/02/03 08:31:50;;;;;;;2.47;1.40;;;;;;;8.04;100.00;102240.91;5083578;28;20102;-70
2024/02/03 08:34:16;;;;;;;2.08;1.40;;;;;;;8.06;100.00;102245.13;5035958;28;20036;-70
2024/02/03 08:36:41;;;;;;;4.97;1.58;;;;;;;8.07;100.00;102241.28;5060366;28;20032;-70
2024/02/03 08:39:07;;;;;;;2.42;1.50;;;;;;;8.07;100.00;102244.03;5053273;28;20484;-70
2024/02/03 08:41:33;;;;;;;5.20;1.63;;;;;;;8.09;100.00;102234.69;5030492;28;20024;-70
2024/02/03 08:43:58;;;;;;;3.53;2.30;;;;;;;8.11;100.00;102236.13;5064044;28;20431;-70
2024/02/03 08:46:23;;;;;;;3.30;1.77;;;;;;;8.09;100.00;102238.28;5055133;28;20472;-70
2024/02/03 08:48:49;;;;;;;4.60;3.00;;;;;;;8.10;100.00;102237.19;5051751;28;20035;-70
2024/02/03 08:51:17;;;;;;;4.63;2.65;;;;;;;8.11;100.00;102241.66;5078755;28;20036;-70
2024/02/03 08:53:43;;;;;;;4.63;2.22;;;;;;;8.11;100.00;102249.09;5067750;28;20038;-70
2024/02/03 08:56:09;;;;;;;6.95;3.30;;;;;;;8.12;100.00;102253.56;5046023;28;20032;-70
2024/02/03 08:58:34;;;;;;;5.95;2.75;;;;;;;8.10;100.00;102251.03;5065334;28;20040;-70
2024/02/03 09:01:00;;;;;;;4.50;2.90;;;;;;;8.15;100.00;102253.94;5062537;28;20098;-70
2024/02/03 09:03:25;;;;;;;4.00;2.50;;;;;;;8.15;100.00;102242.88;5096415;28;20028;-70
2024/02/03 09:05:51;;;;;;;4.45;2.40;;;;;;;8.18;100.00;102236.03;5062828;28;20077;-70
2024/02/03 09:08:16;;;;;;;4.70;2.00;;;;;;;8.21;100.00;102235.53;5048212;28;20377;-70
2024/02/03 09:10:42;;;;;;;4.03;2.25;;;;;;;8.23;100.00;102239.78;5079199;28;20361;-70
2024/02/03 09:13:07;;;;;;;4.47;2.30;;;;;;;8.26;100.00;102235.69;5081667;28;20067;-70
2024/02/03 09:15:33;;;;;;;3.22;2.28;;;;;;;8.29;100.00;102235.22;5044966;28;20059;-70
2024/02/03 09:17:58;;;;;;;3.10;2.38;;;;;;;8.31;100.00;102240.53;5096031;28;20034;-70
2024/02/03 09:20:23;;;;;;;4.10;2.10;;;;;;;8.33;100.00;102244.75;5061520;28;20032;-70
2024/02/03 09:22:49;;;;;;;3.03;1.80;;;;;;;8.35;100.00;102247.25;5058870;28;20029;-72
2024/02/03 09:25:14;;;;;;;4.32;2.30;;;;;;;8.37;100.00;102253.41;5030014;28;20035;-70
2024/02/03 09:27:40;;;;;;;3.85;2.08;;;;;;;8.39;100.00;102254.06;5064783;28;20036;-70
2024/02/03 09:30:06;;;;;;;6.43;2.63;;;;;;;8.43;100.00;102258.03;5078340;28;20388;-70
2024/02/03 09:32:32;;;;;;;4.78;2.40;;;;;;;8.45;100.00;102264.19;5070345;28;20064;-70
2024/02/03 09:34:57;;;;;;;4.75;2.22;;;;;;;8.48;100.00;102263.69;5070066;28;20473;-70
2024/02/03 09:37:23;;;;;;;5.15;2.50;;;;;;;8.53;100.00;102263.84;5066802;28;20024;-70
2024/02/03 09:39:48;;;;;;;5.47;2.30;;;;;;;8.55;100.00;102269.97;5068817;28;20074;-70
2024/02/03 09:42:14;;;;;;;4.18;2.35;;;;;;;8.58;100.00;102280.59;5065603;28;20027;-71
2024/02/03 09:44:39;;;;;;;4.65;2.40;;;;;;;8.61;100.00;102280.13;5060032;28;20500;-70
2024/02/03 09:47:05;;;;;;;2.90;2.15;;;;;;;8.63;100.00;102291.78;5058855;28;20051;-70
2024/02/03 09:49:30;;;;;;;4.22;2.10;;;;;;;8.61;100.00;102291.19;5060059;28;20388;-70
2024/02/03 09:51:56;;;;;;;4.50;2.22;;;;;;;8.68;100.00;102297.44;5063296;28;20040;-70
2024/02/03 09:54:23;;;;;;;3.75;2.30;;;;;;;8.70;100.00;102300.84;5060461;28;20038;-70
2024/02/03 09:56:48;;;;;;;5.18;2.00;;;;;;;8.72;100.00;102301.44;5051783;28;20033;-70
2024/02/03 09:59:14;;;;;;;4.18;1.83;;;;;;;8.76;100.00;102304.56;5064924;28;20077;-70
2024/02/03 10:01:45;;;;;;;2.95;1.88;;;;;;;8.79;100.00;102303.25;5086941;28;20028;-70
2024/02/03 10:04:11;;;;;;;3.60;1.55;;;;;;;8.82;100.00;102302.78;5073504;28;20028;-70
2024/02/03 10:06:37;;;;;;;3.42;1.92;;;;;;;8.84;100.00;102307.00;5064174;28;20473;-70
2024/02/03 10:09:04;;;;;;;4.13;1.50;;;;;;;8.86;100.00;102306.75;5061420;28;20098;-70
2024/02/03 10:11:40;;;;;;;3.13;1.77;;;;;;;8.88;100.00;102302.66;5077629;28;20556;-70
2024/02/03 10:14:05;;;;;;;4.60;1.60;;;;;;;8.89;100.00;102303.53;5034313;28;20092;-70
2024/02/03 10:16:41;;;;;;;3.78;1.58;;;;;;;8.91;100.00;102310.53;5066727;28;20032;-70
2024/02/03 10:19:06;;;;;;;6.75;1.73;;;;;;;8.94;100.00;102317.47;5065754;28;20657;-70
2024/02/03 10:21:32;;;;;;;2.60;1.30;;;;;;;8.95;100.00;102316.41;5079627;28;20036;-70
2024/02/03 10:23:57;;;;;;;4.70;1.70;;;;;;;8.98;100.00;102312.31;5058432;28;20036;-70
2024/02/03 10:26:23;;;;;;;3.05;1.55;;;;;;;9.01;100.00;102317.38;5046335;28;20063;-70
2024/02/03 10:28:48;;;;;;;3.67;1.23;;;;;;;9.02;100.00;102319.91;5099165;28;20024;-70
2024/02/03 10:31:14;;;;;;;3.10;1.30;;;;;;;9.02;100.00;102319.91;5084701;28;20110;-70
2024/02/03 10:33:39;;;;;;;2.88;1.48;;;;;;;9.04;100.00;102311.38;5081669;28;20032;-70
2024/02/03 10:36:05;;;;;;;3.55;1.60;;;;;;;9.07;100.00;102317.25;5057878;28;20045;-70
2024/02/03 10:38:30;;;;;;;5.15;1.90;;;;;;;9.09;100.00;102320.66;5064751;28;20088;-70
2024/02/03 10:40:56;;;;;;;1.85;1.42;;;;;;;9.10;100.00;102316.78;5048055;28;20028;-70
2024/02/03 10:43:25;;;;;;;2.83;1.70;;;;;;;9.13;100.00;102312.69;5069570;28;20035;-70
2024/02/03 10:45:56;;;;;;;5.85;1.80;;;;;;;9.14;100.00;102317.16;5040068;28;20358;-71
2024/02/03 10:48:24;;;;;;;3.10;1.40;;;;;;;9.14;100.00;102323.53;5044001;28;20025;-70
2024/02/03 10:50:52;;;;;;;1.67;1.20;;;;;;;9.16;100.00;102314.97;5047288;28;20052;-70
2024/02/03 10:53:39;;;;;;;6.53;1.40;;;;;;;9.18;100.00;102310.88;5061133;28;20404;-70
2024/02/03 10:56:08;;;;;;;3.45;1.30;;;;;;;9.20;100.00;102299.56;5088585;28;20058;-70
2024/02/03 10:58:34;;;;;;;7.50;1.63;;;;;;;9.22;100.00;102297.41;5054262;28;20100;-70
2024/02/03 11:01:12;;;;;;;4.18;1.65;;;;;;;9.26;100.00;102297.75;5060251;28;20028;-70
2024/02/03 11:03:38;;;;;;;5.63;1.65;;;;;;;9.25;100.00;102296.91;5077121;28;20032;-70
2024/02/03 11:06:06;;;;;;;7.07;2.45;;;;;;;9.26;100.00;102298.59;5087935;28;20069;-70
2024/02/03 11:08:32;;;;;;;5.65;2.20;;;;;;;9.30;100.00;102293.41;5080328;28;20039;-70
2024/02/03 11:10:57;;;;;;;6.30;1.60;;;;;;;9.29;100.00;102295.34;5063388;28;20107;-70
2024/02/03 11:13:24;;;;;;;6.53;2.30;;;;;;;9.30;100.00;102287.84;5071340;28;20038;-70
2024/02/03 11:15:59;;;;;;;5.15;1.80;;;;;;;9.34;100.00;102289.06;5049565;28;20032;-70